Time;durP1;ratioP1;P1;durP2;ratioP2;P2;SDS_P1;SDS_P2;PMS_P1;PMS_P2;Temp;Humidity;BMP_temperature;BMP_pressure;BME280_temperature;BME280_humidity;BME280_pressure;Samples;Min_cycle;Max_cycle;Signal;HPM_P1;HPM_P2
2022/08/10 00:02:20;;;;;;;;;5.00;5.00;;;;;26.06;36.00;101511.16;4881601;29;46003;-55
2022/08/10 00:04:46;;;;;;;;;5.75;5.75;;;;;26.38;36.12;101564.00;4882677;29;45491;-55
2022/08/10 00:07:11;;;;;;;;;7.00;7.00;;;;;26.36;36.19;101565.44;4882834;29;45409;-50
2022/08/10 00:09:36;;;;;;;;;7.00;7.00;;;;;26.23;36.27;101550.09;4882409;29;45545;-51
2022/08/10 00:12:02;;;;;;;;;9.00;7.75;;;;;25.99;36.66;101511.53;4882518;29;46553;-54
2022/08/10 00:14:28;;;;;;;;;7.50;7.00;;;;;26.23;36.07;101542.50;4882654;29;45529;-52
2022/08/10 00:16:53;;;;;;;;;8.75;7.75;;;;;26.24;36.12;101558.25;4882210;29;45292;-57
2022/08/10 00:19:19;;;;;;;;;7.50;7.25;;;;;26.21;36.28;101541.09;4882249;29;45562;-52
2022/08/10 00:21:45;;;;;;;;;8.25;8.25;;;;;26.22;36.36;101554.91;4865366;29;45744;-55
2022/08/10 00:24:10;;;;;;;;;7.00;7.00;;;;;26.16;36.79;101558.03;4882390;29;45461;-56
2022/08/10 00:26:36;;;;;;;;;5.75;4.75;;;;;26.10;36.42;101544.00;4881976;29;45298;-52
2022/08/10 00:29:01;;;;;;;;;6.75;6.75;;;;;26.15;36.77;101560.03;4865692;29;45368;-51
2022/08/10 00:31:27;;;;;;;;;7.50;7.50;;;;;25.93;36.69;101523.97;4881944;29;45608;-53
2022/08/10 00:33:52;;;;;;;;;8.00;6.50;;;;;26.04;36.70;101556.47;4882117;29;45212;-51
2022/08/10 00:36:17;;;;;;;;;6.25;6.25;;;;;26.04;36.55;101547.19;4882135;29;45452;-54
2022/08/10 00:38:43;;;;;;;;;8.00;7.00;;;;;26.03;36.82;101549.16;4882638;29;45556;-55
2022/08/10 00:41:08;;;;;;;;;8.25;7.75;;;;;25.42;36.73;101470.78;4865014;29;45457;-58
2022/08/10 00:43:34;;;;;;;;;7.25;7.25;;;;;25.88;36.94;101538.91;4881919;29;45501;-54
2022/08/10 00:45:59;;;;;;;;;6.00;5.50;;;;;26.00;36.56;101555.41;4865189;29;45813;-55
2022/08/10 00:48:25;;;;;;;;;6.50;6.00;;;;;26.00;36.57;101546.97;4882291;29;45494;-52
2022/08/10 00:50:50;;;;;;;;;8.00;6.75;;;;;25.83;37.10;101542.63;4881891;29;45635;-53
2022/08/10 00:53:15;;;;;;;;;7.00;7.00;;;;;25.83;37.17;101534.19;4864755;29;45428;-52
2022/08/10 00:55:41;;;;;;;;;9.25;8.50;;;;;25.83;37.13;101539.00;4865352;29;45384;-56
2022/08/10 00:58:07;;;;;;;;;4.50;4.50;;;;;25.68;37.13;101523.94;4865277;29;45346;-53
2022/08/10 01:00:32;;;;;;;;;11.25;9.00;;;;;25.75;37.48;101537.66;4864442;29;45641;-52
2022/08/10 01:02:58;;;;;;;;;5.50;5.50;;;;;25.51;37.53;101513.09;4881742;29;45363;-52
2022/08/10 01:05:23;;;;;;;;;6.00;4.50;;;;;25.68;37.71;101537.16;4881810;29;45406;-50
2022/08/10 01:08:16;;;;;;;;;5.50;5.50;;;;;25.68;37.56;101535.16;4881718;29;45290;-50
2022/08/10 01:10:58;;;;;;;;;5.00;5.00;;;;;25.62;37.42;101546.78;4881125;29;45856;-52
2022/08/10 01:13:24;;;;;;;;;6.20;6.20;;;;;25.64;37.30;101545.34;4849266;29;45370;-51
2022/08/10 01:16:00;;;;;;;;;6.00;6.00;;;;;25.49;37.79;101528.59;4881088;29;45457;-53
2022/08/10 01:18:53;;;;;;;;;6.00;6.00;;;;;25.61;37.28;101545.09;4849539;29;45489;-53
2022/08/10 01:21:30;;;;;;;;;5.80;5.40;;;;;25.65;37.44;101541.41;4864423;29;47178;-56
2022/08/10 01:24:29;;;;;;;;;7.00;5.40;;;;;25.61;37.61;101543.09;4881342;29;45495;-53
2022/08/10 01:27:18;;;;;;;;;8.40;6.00;;;;;25.50;37.70;101538.72;4866520;29;45481;-52
2022/08/10 01:30:09;;;;;;;;;5.40;5.20;;;;;25.49;37.83;101529.44;4849644;29;45433;-51
2022/08/10 01:32:49;;;;;;;;;8.00;7.00;;;;;25.00;38.05;101470.28;4831797;29;46517;-53
2022/08/10 01:35:24;;;;;;;;;3.60;3.60;;;;;25.39;37.54;101526.72;4831481;29;45959;-52
2022/08/10 01:38:13;;;;;;;;;5.60;4.80;;;;;25.46;37.51;101538.47;4862161;29;45301;-52
2022/08/10 01:41:02;;;;;;;;;9.00;7.80;;;;;25.29;38.02;101503.19;4831846;29;45330;-55
2022/08/10 01:43:27;;;;;;;;;7.00;6.00;;;;;25.23;38.46;101515.59;4845390;29;46249;-53
2022/08/10 01:45:55;;;;;;;;;4.00;4.00;;;;;25.08;38.25;101504.50;4830181;29;45411;-54
2022/08/10 01:48:27;;;;;;;;;7.20;6.40;;;;;25.21;38.32;101529.09;4846067;29;45453;-54
2022/08/10 01:50:55;;;;;;;;;8.00;6.20;;;;;25.16;38.60;101529.13;4831519;29;45325;-51
2022/08/10 01:53:25;;;;;;;;;7.80;7.80;;;;;25.10;38.41;101525.53;4830027;29;45830;-53
2022/08/10 01:55:52;;;;;;;;;8.80;7.60;;;;;24.98;38.51;101511.84;4830033;29;45390;-52
2022/08/10 01:58:18;;;;;;;;;5.40;5.40;;;;;25.02;38.66;101524.19;4830454;29;45285;-52
2022/08/10 02:00:44;;;;;;;;;5.00;5.00;;;;;24.80;38.88;101496.53;4845763;29;45540;-50
2022/08/10 02:03:10;;;;;;;;;5.60;5.60;;;;;25.04;38.39;101519.09;4831635;29;46018;-55
2022/08/10 02:05:39;;;;;;;;;5.00;5.00;;;;;24.87;38.58;101499.03;4848516;29;45942;-55
2022/08/10 02:08:05;;;;;;;;;5.60;5.00;;;;;24.78;38.86;101493.16;4863993;29;45351;-53
2022/08/10 02:10:30;;;;;;;;;6.50;5.50;;;;;25.08;38.73;101524.16;4864038;29;45753;-53
2022/08/10 02:12:56;;;;;;;;;7.00;5.25;;;;;25.06;38.24;101524.44;4847904;29;46446;-52
2022/08/10 02:15:23;;;;;;;;;6.00;6.00;;;;;25.08;38.07;101512.91;4848306;29;45379;-53
2022/08/10 02:17:51;;;;;;;;;7.00;7.00;;;;;25.12;38.20;101523.28;4863379;29;45385;-54
2022/08/10 02:20:22;;;;;;;;;6.20;6.20;;;;;25.15;38.48;101524.66;4864201;29;45744;-54
2022/08/10 02:22:50;;;;;;;;;7.20;7.00;;;;;24.90;38.17;101495.63;4847638;29;46656;-56
2022/08/10 02:25:16;;;;;;;;;6.40;5.20;;;;;24.85;38.87;101501.28;4863255;29;45478;-55
2022/08/10 02:27:41;;;;;;;;;7.75;6.25;;;;;24.98;39.01;101528.69;4863612;29;45576;-52
2022/08/10 02:30:07;;;;;;;;;7.25;7.25;;;;;25.01;38.77;101528.13;4863664;29;45348;-53
2022/08/10 02:32:33;;;;;;;;;6.80;5.60;;;;;24.98;38.69;101523.06;4863429;29;47738;-53
2022/08/10 02:35:00;;;;;;;;;6.50;5.25;;;;;24.95;39.04;101523.66;4880321;29;45324;-53
2022/08/10 02:37:26;;;;;;;;;7.00;7.00;;;;;24.89;39.17;101520.06;4847949;29;45449;-55
2022/08/10 02:39:51;;;;;;;;;4.50;4.50;;;;;24.82;39.26;101524.31;4863686;29;45402;-51
2022/08/10 02:42:26;;;;;;;;;6.75;6.00;;;;;24.66;38.67;101493.53;4863262;29;46553;-55
2022/08/10 02:45:04;;;;;;;;;7.40;6.00;;;;;24.77;38.80;101511.13;4863475;29;45294;-51
2022/08/10 02:47:32;;;;;;;;;7.60;6.40;;;;;24.84;39.05;101524.84;4848000;29;45435;-56
2022/08/10 02:50:10;;;;;;;;;7.40;6.40;;;;;24.88;38.98;101531.59;4863753;29;45392;-55
2022/08/10 02:52:44;;;;;;;;;10.40;7.20;;;;;24.86;39.03;101529.06;4863245;29;45523;-52
2022/08/10 02:55:26;;;;;;;;;6.20;6.20;;;;;24.94;38.98;101526.75;4847647;29;45364;-53
2022/08/10 02:57:53;;;;;;;;;5.80;5.80;;;;;24.80;38.58;101506.91;4863437;29;45342;-52
2022/08/10 03:00:18;;;;;;;;;4.20;4.20;;;;;24.75;38.66;101503.00;4863676;29;45368;-52
2022/08/10 03:02:48;;;;;;;;;5.00;5.00;;;;;24.95;38.67;101537.72;4863142;29;46668;-53
2022/08/10 03:05:14;;;;;;;;;4.60;4.60;;;;;24.88;39.15;101540.81;4847821;29;45549;-52
2022/08/10 03:07:43;;;;;;;;;6.00;6.00;;;;;24.87;39.29;101541.13;4880296;29;45880;-54
2022/08/10 03:10:10;;;;;;;;;7.00;7.00;;;;;24.69;39.50;101518.19;4879788;29;45280;-53
2022/08/10 03:12:35;;;;;;;;;5.40;5.20;;;;;24.74;38.99;101537.81;4847549;29;46275;-57
2022/08/10 03:15:01;;;;;;;;;8.75;7.00;;;;;24.64;39.47;101532.25;4862995;29;45258;-53
2022/08/10 03:17:27;;;;;;;;;7.25;6.25;;;;;24.63;39.85;101530.56;4847362;29;45267;-52
2022/08/10 03:19:53;;;;;;;;;4.40;4.40;;;;;24.68;39.40;101533.34;4848096;29;45388;-54
2022/08/10 03:22:18;;;;;;;;;5.50;5.50;;;;;24.71;39.39;101526.31;4862816;29;45593;-53
2022/08/10 03:24:44;;;;;;;;;7.00;7.00;;;;;24.71;39.00;101531.94;4847678;29;45306;-51
2022/08/10 03:27:09;;;;;;;;;6.50;6.50;;;;;24.63;39.50;101523.00;4879797;29;45353;-53
2022/08/10 03:29:35;;;;;;;;;6.50;6.50;;;;;24.49;39.50;101491.09;4863034;29;45606;-52
2022/08/10 03:32:01;;;;;;;;;7.50;6.50;;;;;24.68;39.26;101519.31;4862824;29;46851;-52
2022/08/10 03:34:26;;;;;;;;;5.60;5.60;;;;;24.65;39.38;101525.50;4847053;29;45339;-54
2022/08/10 03:36:52;;;;;;;;;4.75;4.75;;;;;24.67;39.14;101528.00;4849851;29;45395;-55
2022/08/10 03:39:17;;;;;;;;;6.00;6.00;;;;;24.42;39.83;101507.38;4869125;29;45307;-56
2022/08/10 03:41:48;;;;;;;;;6.00;6.00;;;;;24.52;39.73;101526.13;4855782;29;45374;-53
2022/08/10 03:44:18;;;;;;;;;5.60;5.60;;;;;24.49;40.02;101534.00;4864113;29;46014;-55
2022/08/10 03:46:44;;;;;;;;;6.20;4.80;;;;;24.34;39.92;101528.47;4851083;29;45344;-57
2022/08/10 03:49:10;;;;;;;;;5.00;5.00;;;;;24.36;39.58;101524.25;4850678;29;45841;-54
2022/08/10 03:51:35;;;;;;;;;5.25;5.25;;;;;24.18;40.29;101508.88;4865795;29;45783;-52
2022/08/10 03:54:01;;;;;;;;;6.25;5.25;;;;;24.27;40.42;101530.75;4850183;29;45333;-52
2022/08/10 03:56:27;;;;;;;;;6.00;6.00;;;;;24.33;39.97;101532.41;4882624;29;45277;-53
2022/08/10 03:58:53;;;;;;;;;3.80;3.80;;;;;24.16;40.59;101533.56;4865917;29;45738;-55
2022/08/10 04:01:18;;;;;;;;;7.00;6.00;;;;;24.08;40.03;101511.72;4882464;29;45471;-56
2022/08/10 04:03:44;;;;;;;;;6.00;6.00;;;;;24.16;40.65;101529.94;4882162;29;45564;-53
2022/08/10 04:06:10;;;;;;;;;7.00;7.00;;;;;24.16;40.62;101525.16;4866120;29;45343;-56
2022/08/10 04:08:39;;;;;;;;;6.60;6.00;;;;;24.01;40.74;101511.16;4882612;29;45728;-55
2022/08/10 04:11:05;;;;;;;;;4.80;4.80;;;;;24.10;40.28;101526.28;4865425;29;45775;-52
2022/08/10 04:13:30;;;;;;;;;4.75;4.75;;;;;24.05;40.53;101520.66;4882561;29;45241;-54
2022/08/10 04:15:57;;;;;;;;;5.20;5.20;;;;;24.11;40.26;101524.34;4865381;29;45428;-53
2022/08/10 04:18:22;;;;;;;;;6.00;6.00;;;;;23.99;40.71;101508.63;4882552;29;45585;-57
2022/08/10 04:20:49;;;;;;;;;5.50;4.00;;;;;24.14;40.42;101537.78;4881913;29;45426;-51
2022/08/10 04:23:22;;;;;;;;;4.00;4.00;;;;;24.18;40.45;101533.28;4882491;29;45476;-53
2022/08/10 04:25:47;;;;;;;;;6.80;5.00;;;;;24.06;40.40;101516.75;4882218;29;45230;-54
2022/08/10 04:28:13;;;;;;;;;5.25;5.25;;;;;24.18;40.20;101522.06;4850331;29;45436;-48
2022/08/10 04:30:38;;;;;;;;;6.50;6.50;;;;;24.16;40.56;101533.56;4849679;29;46152;-49
2022/08/10 04:33:05;;;;;;;;;6.00;6.00;;;;;23.99;41.06;101535.81;4849640;29;45431;-51
2022/08/10 04:35:30;;;;;;;;;6.60;5.40;;;;;23.52;41.16;101449.06;4849854;29;45336;-51
2022/08/10 04:37:56;;;;;;;;;5.00;5.00;;;;;24.06;40.74;101526.03;4865520;29;45343;-50
2022/08/10 04:40:21;;;;;;;;;6.00;6.00;;;;;24.08;40.57;101536.97;4849712;29;45746;-53
2022/08/10 04:42:47;;;;;;;;;5.50;5.50;;;;;24.08;40.85;101534.16;4849281;29;45504;-52
2022/08/10 04:45:13;;;;;;;;;5.00;5.00;;;;;24.03;40.89;101531.34;4865269;29;45397;-51
2022/08/10 04:47:38;;;;;;;;;5.40;3.80;;;;;23.80;41.34;101506.44;4881655;29;45442;-53
2022/08/10 04:50:04;;;;;;;;;5.00;5.00;;;;;23.87;41.31;101533.34;4881485;29;46452;-51
2022/08/10 04:52:30;;;;;;;;;5.60;4.20;;;;;23.87;41.30;101524.91;4881702;29;45335;-49
2022/08/10 04:54:55;;;;;;;;;7.25;4.75;;;;;23.86;41.37;101552.13;4881445;29;45360;-54
2022/08/10 04:57:21;;;;;;;;;4.00;4.00;;;;;23.76;41.58;101544.56;4882335;29;45337;-51
2022/08/10 04:59:47;;;;;;;;;5.00;5.00;;;;;23.75;41.31;101553.25;4864340;29;46623;-52
2022/08/10 05:02:13;;;;;;;;;5.60;5.60;;;;;23.87;41.14;101556.59;4864927;29;45379;-51
2022/08/10 05:04:38;;;;;;;;;6.00;5.00;;;;;23.98;41.19;101557.41;4881734;29;45490;-50
2022/08/10 05:07:10;;;;;;;;;5.75;5.75;;;;;24.00;41.23;101541.16;4881834;29;45998;-50
2022/08/10 05:09:39;;;;;;;;;6.20;6.20;;;;;24.03;41.03;101551.81;4864554;29;45870;-53
2022/08/10 05:12:05;;;;;;;;;7.20;5.00;;;;;23.99;41.02;101547.03;4881426;29;45337;-52
2022/08/10 05:14:31;;;;;;;;;6.60;6.60;;;;;23.88;40.76;101532.19;4881796;29;45408;-49
2022/08/10 05:16:56;;;;;;;;;8.50;6.25;;;;;24.09;41.09;101556.31;4865240;29;45327;-48
2022/08/10 05:19:21;;;;;;;;;6.50;5.50;;;;;24.06;41.13;101562.47;4881442;29;46756;-49
2022/08/10 05:21:47;;;;;;;;;4.75;4.50;;;;;24.01;40.85;101556.03;4881518;29;45447;-54
2022/08/10 05:24:12;;;;;;;;;5.25;5.25;;;;;24.00;41.13;101560.78;4881458;29;45412;-54
2022/08/10 05:26:38;;;;;;;;;9.00;6.00;;;;;23.98;41.26;101554.63;4882108;29;45334;-52
2022/08/10 05:29:03;;;;;;;;;6.50;6.00;;;;;23.96;41.21;101551.28;4864397;29;46435;-51
2022/08/10 05:31:29;;;;;;;;;7.50;6.00;;;;;23.93;40.82;101555.47;4881364;29;45494;-51
2022/08/10 05:33:54;;;;;;;;;6.00;5.00;;;;;23.93;41.33;101561.09;4864840;29;45288;-51
2022/08/10 05:36:20;;;;;;;;;4.25;4.25;;;;;23.89;41.30;101559.97;4881779;29;45471;-49
2022/08/10 05:38:45;;;;;;;;;6.50;5.00;;;;;23.92;41.45;101564.16;4848661;29;46854;-50
2022/08/10 05:41:11;;;;;;;;;6.50;6.25;;;;;23.94;41.09;101568.38;4881263;29;45486;-49
2022/08/10 05:43:36;;;;;;;;;8.25;5.50;;;;;23.93;41.42;101561.09;4864639;29;45376;-53
2022/08/10 05:46:02;;;;;;;;;8.00;6.50;;;;;23.87;41.73;101562.22;4864753;29;45390;-52
2022/08/10 05:48:27;;;;;;;;;6.25;6.25;;;;;23.81;41.43;101563.34;4880672;29;46439;-51
2022/08/10 05:50:53;;;;;;;;;7.75;6.75;;;;;23.73;41.60;101550.72;4864567;29;45438;-54
2022/08/10 05:53:18;;;;;;;;;6.00;6.00;;;;;23.76;41.75;101566.16;4864307;29;46001;-53
2022/08/10 05:55:44;;;;;;;;;6.50;6.50;;;;;23.77;41.50;101562.22;4881262;29;45488;-51
2022/08/10 05:58:09;;;;;;;;;7.00;6.00;;;;;23.64;41.80;101552.44;4848507;29;46508;-50
2022/08/10 06:00:35;;;;;;;;;5.25;5.25;;;;;23.78;41.50;101563.88;4862850;29;45363;-50
2022/08/10 06:03:03;;;;;;;;;8.50;8.50;;;;;23.75;41.50;101570.06;4864514;29;45956;-51
2022/08/10 06:05:30;;;;;;;;;6.00;6.00;;;;;23.68;41.58;101548.78;4848704;29;45558;-53
2022/08/10 06:08:08;;;;;;;;;7.00;7.00;;;;;23.67;41.94;101563.91;4864253;29;46318;-54
2022/08/10 06:10:36;;;;;;;;;6.20;6.20;;;;;23.78;41.60;101566.69;4848211;29;45457;-50
2022/08/10 06:15:47;;;;;;;;;6.00;6.00;;;;;23.85;41.68;101561.63;4866260;29;45416;-51
2022/08/10 06:18:14;;;;;;;;;7.50;6.50;;;;;23.91;41.78;101571.72;4848167;29;46504;-50
2022/08/10 06:20:39;;;;;;;;;6.40;6.40;;;;;23.83;41.81;101564.75;4863370;29;45444;-53
2022/08/10 06:23:05;;;;;;;;;6.00;6.00;;;;;23.85;41.75;101561.63;4863825;29;45434;-50
2022/08/10 06:25:31;;;;;;;;;9.00;8.00;;;;;23.96;41.21;101565.28;4880472;29;45344;-51
2022/08/10 06:27:58;;;;;;;;;8.20;8.20;;;;;23.92;41.65;101575.38;4880543;29;45590;-49
2022/08/10 06:30:23;;;;;;;;;6.40;6.40;;;;;23.94;41.27;101573.13;4863194;29;45284;-55
2022/08/10 06:32:50;;;;;;;;;7.50;6.50;;;;;24.00;41.59;101576.78;4848010;29;45409;-54
2022/08/10 06:35:15;;;;;;;;;7.00;6.80;;;;;23.89;41.14;101553.50;4880541;29;45365;-51
2022/08/10 06:37:41;;;;;;;;;4.00;4.00;;;;;23.82;41.34;101551.84;4829914;29;46443;-49
2022/08/10 06:40:07;;;;;;;;;8.25;7.50;;;;;23.88;41.41;101582.66;4863253;29;45324;-51
2022/08/10 06:42:34;;;;;;;;;6.00;6.00;;;;;23.86;41.38;101582.97;4880003;29;45289;-51
2022/08/10 06:45:15;;;;;;;;;7.80;6.40;;;;;23.94;41.35;101587.13;4848236;29;45394;-51
2022/08/10 06:47:54;;;;;;;;;11.40;7.00;;;;;23.98;41.59;101584.59;4863353;29;45409;-50
2022/08/10 06:50:32;;;;;;;;;7.80;7.80;;;;;23.81;42.13;101583.78;4880053;29;45400;-51
2022/08/10 06:52:58;;;;;;;;;8.60;8.00;;;;;23.78;41.69;101580.69;4849549;29;45836;-49
2022/08/10 06:55:24;;;;;;;;;7.75;7.75;;;;;23.84;41.96;101573.97;4863293;29;45534;-49
2022/08/10 06:57:49;;;;;;;;;2.75;2.25;;;;;23.68;41.84;101554.38;4863171;29;46404;-50
2022/08/10 07:00:15;;;;;;;;;8.00;8.00;;;;;23.78;41.97;101572.28;4847722;29;45390;-49
2022/08/10 07:02:45;;;;;;;;;7.00;6.00;;;;;23.77;42.10;101565.88;4863350;29;45384;-53
2022/08/10 07:05:15;;;;;;;;;9.40;8.80;;;;;23.81;41.49;101563.34;4880062;29;45306;-51
2022/08/10 07:07:42;;;;;;;;;9.20;8.00;;;;;24.03;41.25;101587.41;4847867;29;46545;-49
2022/08/10 07:10:08;;;;;;;;;10.60;9.00;;;;;24.05;41.58;101585.16;4847161;29;45406;-50
2022/08/10 07:12:33;;;;;;;;;9.25;8.00;;;;;24.04;41.18;101587.13;4850755;29;45395;-54
2022/08/10 07:14:59;;;;;;;;;5.50;5.50;;;;;23.98;41.64;101573.38;4883351;29;45487;-51
2022/08/10 07:17:25;;;;;;;;;9.00;8.00;;;;;24.00;41.29;101583.19;4866133;29;45525;-52
2022/08/10 07:19:54;;;;;;;;;10.00;9.00;;;;;23.88;41.47;101552.69;4850633;29;45377;-50
2022/08/10 07:22:25;;;;;;;;;10.80;9.00;;;;;23.93;41.24;101557.44;4866670;29;45439;-50
2022/08/10 07:24:51;;;;;;;;;10.00;7.60;;;;;23.99;40.80;101561.91;4866433;29;45328;-51
2022/08/10 07:27:16;;;;;;;;;11.00;9.60;;;;;24.14;41.31;101580.69;4850720;29;46665;-49
2022/08/10 07:29:42;;;;;;;;;7.75;7.00;;;;;24.25;40.53;101577.84;4882784;29;45255;-52
2022/08/10 07:32:07;;;;;;;;;9.00;9.00;;;;;24.21;40.56;101556.00;4865916;29;45353;-49
2022/08/10 07:34:33;;;;;;;;;7.50;7.50;;;;;24.30;40.96;101556.25;4850943;29;45436;-49
2022/08/10 07:37:01;;;;;;;;;10.00;10.00;;;;;24.45;40.34;101574.13;4865951;29;46754;-54
2022/08/10 07:39:32;;;;;;;;;10.40;7.80;;;;;24.31;40.50;101555.13;4831626;29;45377;-55
2022/08/10 07:41:57;;;;;;;;;6.80;6.80;;;;;24.49;40.42;101570.47;4850847;29;45414;-51
2022/08/10 07:44:28;;;;;;;;;6.00;6.00;;;;;24.56;40.12;101572.97;4882374;29;45478;-48
2022/08/10 07:46:55;;;;;;;;;5.80;5.80;;;;;24.66;40.33;101577.72;4866007;29;45376;-53
2022/08/10 07:49:22;;;;;;;;;16.60;13.00;;;;;24.72;39.91;101582.16;4882766;29;45412;-50
2022/08/10 07:51:49;;;;;;;;;16.80;11.60;;;;;24.66;39.63;101566.47;4850865;29;45403;-50
2022/08/10 07:54:15;;;;;;;;;10.60;8.60;;;;;24.86;39.80;101575.97;4865891;29;45344;-51
2022/08/10 07:56:46;;;;;;;;;12.75;8.00;;;;;24.89;39.95;101581.81;4882477;29;45986;-51
2022/08/10 07:59:14;;;;;;;;;10.00;7.60;;;;;24.78;39.84;101555.72;4865282;29;45296;-50
2022/08/10 08:01:49;;;;;;;;;9.20;9.20;;;;;24.98;39.82;101587.66;4865624;29;45494;-51
2022/08/10 08:04:15;;;;;;;;;10.80;9.00;;;;;24.95;39.83;101573.34;4851037;29;45443;-48
2022/08/10 08:06:41;;;;;;;;;8.60;8.60;;;;;25.12;39.64;101587.84;4850060;29;45615;-52
2022/08/10 08:09:07;;;;;;;;;11.00;10.00;;;;;25.05;38.70;101570.50;4865361;29;45426;-54
2022/08/10 08:11:32;;;;;;;;;7.75;7.75;;;;;25.24;39.32;101587.47;4865360;29;45375;-51
2022/08/10 08:13:58;;;;;;;;;9.75;9.75;;;;;25.27;38.00;101589.72;4850122;29;45433;-52
2022/08/10 08:16:24;;;;;;;;;10.00;7.75;;;;;25.35;39.16;101587.44;4849458;29;46578;-49
2022/08/10 08:18:51;;;;;;;;;8.25;8.25;;;;;25.27;39.15;101555.16;4882421;29;45386;-50
2022/08/10 08:21:17;;;;;;;;;7.60;7.00;;;;;25.42;38.52;101582.31;4864980;29;45707;-51
2022/08/10 08:23:43;;;;;;;;;12.20;9.60;;;;;25.41;38.28;101570.22;4849079;29;45580;-48
2022/08/10 08:26:11;;;;;;;;;10.00;8.75;;;;;25.33;39.50;101550.38;4865267;29;45539;-47
2022/08/10 08:28:37;;;;;;;;;10.40;7.80;;;;;25.49;38.20;101570.75;4882421;29;45348;-49
2022/08/10 08:31:03;;;;;;;;;9.50;9.50;;;;;25.57;38.28;101564.53;4865053;29;45438;-52
2022/08/10 08:33:31;;;;;;;;;11.20;10.00;;;;;25.64;38.32;101564.16;4831488;29;45701;-54
2022/08/10 08:35:57;;;;;;;;;12.20;10.40;;;;;25.68;38.73;101568.06;4846748;29;45267;-48
2022/08/10 08:38:23;;;;;;;;;8.75;8.00;;;;;25.69;37.57;101562.16;4855614;29;45847;-51
2022/08/10 08:40:56;;;;;;;;;9.50;8.00;;;;;25.72;38.34;101560.75;4864372;29;45316;-54
2022/08/10 08:43:52;;;;;;;;;9.00;9.00;;;;;25.69;37.60;101558.50;4865399;29;45301;-55
2022/08/10 08:46:27;;;;;;;;;11.60;9.40;;;;;25.76;37.91;101561.00;4878980;29;47852;-54
2022/08/10 08:48:56;;;;;;;;;7.40;7.40;;;;;25.82;37.82;101560.63;4865116;29;45384;-54
2022/08/10 08:51:33;;;;;;;;;8.60;6.60;;;;;25.87;37.90;101556.09;4881439;29;45355;-51
2022/08/10 08:54:18;;;;;;;;;10.80;8.80;;;;;25.97;37.37;101556.81;4865413;29;45444;-54
2022/08/10 08:56:53;;;;;;;;;10.00;10.00;;;;;26.01;37.60;101562.69;4850840;29;45441;-53
2022/08/10 08:59:21;;;;;;;;;9.20;9.00;;;;;26.08;37.01;101559.50;4831011;29;45471;-55
2022/08/10 09:02:08;;;;;;;;;7.60;6.80;;;;;26.09;36.73;101561.22;4862513;29;45396;-51
2022/08/10 09:04:46;;;;;;;;;9.60;8.60;;;;;26.14;36.35;101558.31;4846182;29;45487;-53
2022/08/10 09:07:20;;;;;;;;;9.00;9.00;;;;;26.02;36.97;101510.94;4845908;29;46777;-52
2022/08/10 09:09:54;;;;;;;;;8.40;8.40;;;;;26.32;36.49;101553.94;4849714;29;45438;-56
2022/08/10 09:12:37;;;;;;;;;10.00;9.00;;;;;26.39;36.36;101550.75;4881498;29;45421;-51
2022/08/10 09:15:07;;;;;;;;;9.00;8.80;;;;;26.46;36.36;101554.03;4881473;29;45376;-51
2022/08/10 09:17:50;;;;;;;;;10.40;10.40;;;;;26.50;35.12;101543.00;4849156;29;45759;-52
2022/08/10 09:20:21;;;;;;;;;8.60;8.60;;;;;26.54;35.50;101535.66;4881440;29;45534;-50
2022/08/10 09:22:55;;;;;;;;;11.00;10.00;;;;;26.65;35.60;101540.00;4847930;29;45280;-54
2022/08/10 09:25:23;;;;;;;;;10.20;10.20;;;;;26.73;35.89;101544.09;4849628;29;45425;-55
2022/08/10 09:27:58;;;;;;;;;10.60;9.60;;;;;26.88;34.83;101531.78;4880838;29;45360;-52
2022/08/10 09:30:34;;;;;;;;;10.00;10.00;;;;;26.87;34.52;101509.56;4849159;29;45402;-53
2022/08/10 09:33:14;;;;;;;;;8.20;8.20;;;;;27.09;34.61;101533.50;4845485;29;45504;-53
2022/08/10 09:35:58;;;;;;;;;8.60;8.00;;;;;27.23;33.96;101534.38;4878688;29;45621;-50
2022/08/10 09:38:59;;;;;;;;;8.00;8.00;;;;;27.24;33.74;101527.59;4880555;29;45283;-54
2022/08/10 09:41:40;;;;;;;;;10.20;10.20;;;;;27.36;33.44;101529.94;4837480;29;49489;-54
2022/08/10 09:44:38;;;;;;;;;13.20;10.00;;;;;27.41;33.63;101527.03;4880572;29;45381;-55
2022/08/10 09:47:21;;;;;;;;;10.20;9.00;;;;;27.41;32.98;101517.72;4879239;29;45355;-53
2022/08/10 09:50:07;;;;;;;;;10.80;9.20;;;;;27.55;32.66;101529.06;4879131;29;48222;-51
2022/08/10 09:53:04;;;;;;;;;9.60;9.60;;;;;27.74;32.91;101531.84;4863778;29;45452;-54
2022/08/10 09:55:54;;;;;;;;;10.80;8.20;;;;;27.88;32.70;101523.41;4880504;29;45421;-50
2022/08/10 09:58:38;;;;;;;;;8.60;8.00;;;;;27.83;32.72;101498.97;4880067;29;45721;-52
2022/08/10 10:01:16;;;;;;;;;9.00;9.00;;;;;28.06;32.07;101523.63;4880372;29;46744;-54
2022/08/10 10:03:45;;;;;;;;;10.20;9.80;;;;;28.03;32.10;101507.31;4880439;29;45437;-54
2022/08/10 10:06:15;;;;;;;;;10.00;10.00;;;;;28.08;32.71;101508.06;4864161;29;45411;-52
2022/08/10 10:09:04;;;;;;;;;8.80;8.20;;;;;28.30;32.07;101512.16;4848805;29;45794;-51
2022/08/10 10:12:05;;;;;;;;;12.00;10.80;;;;;28.42;31.45;101500.31;4862405;29;46747;-52
2022/08/10 10:18:21;;;;;;;;;9.00;9.00;;;;;28.52;31.05;101490.78;4880609;29;45397;-54
2022/08/10 10:21:25;;;;;;;;;9.60;9.60;;;;;28.62;31.91;101496.22;4851236;29;45699;-52
2022/08/10 10:24:09;;;;;;;;;10.80;10.00;;;;;28.69;31.02;101484.47;4879228;29;45720;-53
2022/08/10 10:26:49;;;;;;;;;11.40;11.00;;;;;28.72;31.01;101497.13;4880340;29;45689;-52
2022/08/10 10:29:50;;;;;;;;;11.40;11.40;;;;;28.80;30.58;101482.22;4880708;29;45237;-54
2022/08/10 10:32:46;;;;;;;;;16.40;15.00;;;;;28.89;30.59;101485.16;4863917;29;45478;-52
2022/08/10 10:35:26;;;;;;;;;9.60;9.60;;;;;29.06;29.91;101476.00;4865142;29;47012;-51
2022/08/10 10:37:52;;;;;;;;;10.60;10.60;;;;;29.14;29.45;101468.75;4863372;29;45456;-53
2022/08/10 10:40:18;;;;;;;;;7.80;7.80;;;;;29.15;29.67;101456.28;4880135;29;45335;-54
2022/08/10 10:43:08;;;;;;;;;11.20;10.40;;;;;29.28;29.81;101469.50;4847716;29;45648;-54
2022/08/10 10:45:50;;;;;;;;;11.00;10.60;;;;;29.44;28.95;101466.25;4864427;29;45598;-53
2022/08/10 10:48:24;;;;;;;;;10.00;10.00;;;;;29.54;29.01;101454.69;4868225;29;45359;-51
2022/08/10 10:51:08;;;;;;;;;9.00;8.60;;;;;29.68;29.03;101459.41;4870842;29;45572;-54
2022/08/10 10:53:53;;;;;;;;;14.60;12.20;;;;;29.79;28.71;101462.78;4886548;29;45332;-50
2022/08/10 10:56:22;;;;;;;;;8.20;8.20;;;;;29.95;28.86;101460.34;4885517;29;45555;-55
2022/08/10 10:59:25;;;;;;;;;9.40;9.00;;;;;30.00;28.16;101463.03;4886244;29;45387;-53
2022/08/10 11:02:08;;;;;;;;;10.80;9.80;;;;;29.68;26.98;101389.56;4885919;29;45426;-52
2022/08/10 11:04:48;;;;;;;;;11.00;10.00;;;;;30.20;26.75;101455.13;4854575;29;45194;-55
2022/08/10 11:07:39;;;;;;;;;9.20;9.20;;;;;30.28;26.29;101446.66;4869149;29;45823;-54
2022/08/10 11:10:08;;;;;;;;;8.60;8.60;;;;;30.32;25.72;101446.84;4859874;29;45416;-48
2022/08/10 11:12:36;;;;;;;;;7.00;7.00;;;;;30.45;25.99;101430.84;4866458;29;45725;-53
2022/08/10 11:15:24;;;;;;;;;11.00;11.00;;;;;30.50;26.20;101427.84;4865411;29;45500;-54
2022/08/10 11:18:17;;;;;;;;;10.40;10.40;;;;;30.50;25.62;101425.03;4851177;29;46522;-51
2022/08/10 11:20:47;;;;;;;;;7.00;7.00;;;;;30.56;25.29;101405.84;4871817;29;45729;-49
2022/08/10 11:23:34;;;;;;;;;9.00;8.80;;;;;30.73;25.19;101432.56;4861725;29;45636;-53
2022/08/10 11:26:11;;;;;;;;;6.80;6.80;;;;;30.78;24.83;101426.72;4810738;29;45525;-50
2022/08/10 11:28:44;;;;;;;;;9.60;9.00;;;;;30.77;24.63;101410.88;4878481;29;47510;-52
2022/08/10 11:31:22;;;;;;;;;9.80;9.80;;;;;30.71;24.94;101384.72;4849420;29;45720;-54
2022/08/10 11:34:05;;;;;;;;;8.00;8.00;;;;;30.87;24.75;101402.03;4865150;29;45633;-54
2022/08/10 11:36:37;;;;;;;;;7.00;7.00;;;;;31.04;25.13;101392.66;4863672;29;45734;-55
2022/08/10 11:39:09;;;;;;;;;7.60;7.60;;;;;31.27;24.67;101414.31;4879980;29;46569;-50
2022/08/10 11:41:35;;;;;;;;;8.60;8.60;;;;;31.39;24.85;101408.78;4849224;29;45534;-48
2022/08/10 11:44:08;;;;;;;;;10.25;10.25;;;;;31.36;24.21;101406.59;4881437;29;45393;-53
2022/08/10 11:46:35;;;;;;;;;10.80;10.80;;;;;31.44;24.43;101410.59;4864716;29;45532;-49